Time;durP1;ratioP1;P1;durP2;ratioP2;P2;SDS_P1;SDS_P2;PMS_P1;PMS_P2;Temp;Humidity;BMP_temperature;BMP_pressure;BME280_temperature;BME280_humidity;BME280_pressure;Samples;Min_cycle;Max_cycle;Signal;HPM_P1;HPM_P2
2021/05/29 00:00:58;;;;;;;3.00;0.70;;;19.10;99.90;;;;;;5039557;28;20684;-95
2021/05/29 00:03:31;;;;;;;2.80;0.70;;;19.00;99.90;;;;;;5039731;28;20220;-92
2021/05/29 00:06:06;;;;;;;2.50;0.90;;;19.10;99.90;;;;;;5041526;28;20499;-96
2021/05/29 00:08:36;;;;;;;2.93;0.90;;;19.00;99.90;;;;;;5040801;28;20235;-96
2021/05/29 00:11:11;;;;;;;4.27;0.83;;;18.80;99.90;;;;;;5040293;28;20263;-96
2021/05/29 00:13:42;;;;;;;3.80;0.60;;;18.80;99.90;;;;;;5041177;28;20239;-96
2021/05/29 00:16:16;;;;;;;2.20;0.70;;;18.50;99.90;;;;;;5040138;28;20583;-96
2021/05/29 00:18:47;;;;;;;1.70;0.73;;;18.40;99.90;;;;;;5021252;28;20287;-95
2021/05/29 00:21:19;;;;;;;2.07;0.67;;;18.40;99.90;;;;;;5021650;28;20229;-96
2021/05/29 00:24:11;;;;;;;0.60;0.60;;;18.40;99.90;;;;;;5044531;28;20637;-96
2021/05/29 00:26:49;;;;;;;1.40;0.60;;;18.40;99.90;;;;;;5028062;28;20587;-95
2021/05/29 00:29:19;;;;;;;1.23;0.60;;;18.30;99.90;;;;;;5020354;28;20212;-93
2021/05/29 00:31:52;;;;;;;3.70;0.80;;;18.20;99.90;;;;;;5019096;28;20708;-92
2021/05/29 00:34:23;;;;;;;2.20;0.70;;;18.30;99.90;;;;;;5022385;28;20209;-91
2021/05/29 00:36:53;;;;;;;2.47;1.00;;;18.30;99.90;;;;;;5043729;28;20268;-94
2021/05/29 00:39:25;;;;;;;2.17;0.90;;;18.20;99.90;;;;;;5057271;28;20201;-88
2021/05/29 00:41:57;;;;;;;3.33;1.00;;;18.40;99.90;;;;;;5051471;28;20232;-91
2021/05/29 00:44:27;;;;;;;2.40;0.90;;;18.90;99.90;;;;;;5050902;28;20212;-89
2021/05/29 00:46:58;;;;;;;1.60;0.83;;;19.10;99.90;;;;;;5045893;28;20660;-94
2021/05/29 00:49:29;;;;;;;1.77;0.60;;;19.60;99.90;;;;;;5039457;28;20216;-91
2021/05/29 00:51:59;;;;;;;3.00;0.80;;;20.10;99.90;;;;;;5049082;28;20267;-93
2021/05/29 00:54:30;;;;;;;1.77;0.90;;;20.80;99.90;;;;;;5059557;28;20208;-91
2021/05/29 00:57:03;;;;;;;3.27;1.03;;;21.30;99.90;;;;;;5059354;28;20212;-95
2021/05/29 00:59:34;;;;;;;2.50;0.70;;;21.70;99.90;;;;;;5059830;28;20235;-91
2021/05/29 01:02:06;;;;;;;4.23;0.90;;;22.00;99.90;;;;;;5053708;28;20205;-94
2021/05/29 01:04:36;;;;;;;3.17;0.80;;;22.30;99.90;;;;;;5046940;28;20209;-94
2021/05/29 01:07:11;;;;;;;4.07;1.10;;;22.30;99.90;;;;;;5040665;28;20663;-93
2021/05/29 01:09:43;;;;;;;2.27;1.00;;;22.40;99.90;;;;;;5029055;28;20290;-93
2021/05/29 01:12:18;;;;;;;2.93;1.10;;;22.10;99.90;;;;;;5040065;28;20232;-92
2021/05/29 01:14:54;;;;;;;3.47;1.00;;;22.40;99.90;;;;;;5037103;28;20227;-88
2021/05/29 01:17:26;;;;;;;2.30;0.83;;;22.60;99.90;;;;;;5037840;28;20295;-91
2021/05/29 01:19:57;;;;;;;3.10;0.70;;;22.70;99.90;;;;;;5037362;28;20299;-92
2021/05/29 01:22:44;;;;;;;3.77;1.30;;;22.90;99.90;;;;;;5038472;28;20212;-92
2021/05/29 01:25:21;;;;;;;1.67;0.80;;;23.10;99.90;;;;;;5037621;28;20659;-90
2021/05/29 01:28:04;;;;;;;5.27;1.20;;;23.30;99.90;;;;;;5037131;28;20276;-91
2021/05/29 01:30:40;;;;;;;2.33;0.90;;;23.30;99.90;;;;;;5021012;28;20304;-89
2021/05/29 01:33:13;;;;;;;4.10;1.20;;;23.40;99.90;;;;;;5037276;28;20304;-92
2021/05/29 01:35:45;;;;;;;4.37;1.60;;;23.30;99.90;;;;;;5037536;28;20737;-89
2021/05/29 01:38:19;;;;;;;2.27;1.13;;;23.20;99.90;;;;;;5039878;28;20662;-91
2021/05/29 01:40:51;;;;;;;4.07;1.20;;;23.30;99.90;;;;;;5039907;28;20295;-89
2021/05/29 01:43:21;;;;;;;5.07;1.20;;;23.30;99.90;;;;;;5037001;28;20614;-90
2021/05/29 01:48:33;;;;;;;4.07;0.87;;;23.10;99.90;;;;;;5704410;23;20275;-96
2021/05/29 01:51:04;;;;;;;2.13;1.00;;;23.00;99.90;;;;;;5162721;23;20938;-95
2021/05/29 01:53:36;;;;;;;3.10;0.93;;;23.40;99.90;;;;;;5009351;28;20218;-96
2021/05/29 01:56:07;;;;;;;3.53;0.90;;;22.90;99.90;;;;;;5069832;23;10001823;-96
2021/05/29 01:58:44;;;;;;;4.43;1.23;;;23.10;99.90;;;;;;5052357;28;20209;-96
2021/05/29 02:17:23;;;;;;;2.43;0.90;;;22.90;99.90;;;;;;5998920;23;20204;-96
2021/05/29 02:30:36;;;;;;;3.00;1.10;;;20.20;99.90;;;;;;5549672;23;20279;-96
2021/05/29 02:33:10;;;;;;;3.10;0.80;;;19.70;99.90;;;;;;5587330;23;20237;-96
2021/05/29 02:35:42;;;;;;;2.87;0.93;;;19.30;99.90;;;;;;5020892;28;20202;-96
2021/05/29 02:52:01;;;;;;;4.27;1.00;;;17.10;99.90;;;;;;5451412;22;20256;-96
2021/05/29 02:57:24;;;;;;;3.27;1.13;;;16.70;99.90;;;;;;5381755;23;20246;-96
2021/05/29 03:00:12;;;;;;;2.77;1.00;;;16.50;99.90;;;;;;5705957;23;20228;-96
2021/05/29 03:02:46;;;;;;;2.23;0.80;;;16.40;99.90;;;;;;5051868;28;20223;-96
2021/05/29 03:05:24;;;;;;;2.00;1.10;;;16.20;99.90;;;;;;5037760;28;20650;-96
2021/05/29 03:07:59;;;;;;;3.00;1.10;;;16.10;99.90;;;;;;5057712;28;20201;-96
2021/05/29 03:10:30;;;;;;;4.10;1.17;;;16.00;99.90;;;;;;5042442;28;20296;-96
2021/05/29 03:13:11;;;;;;;4.13;1.50;;;15.90;99.90;;;;;;5044135;28;20221;-96
2021/05/29 03:15:58;;;;;;;2.50;1.00;;;15.70;99.90;;;;;;5051511;28;20205;-96
2021/05/29 03:18:45;;;;;;;2.87;1.17;;;15.60;99.90;;;;;;5056859;28;20193;-96
2021/05/29 03:21:18;;;;;;;3.03;1.53;;;15.40;99.90;;;;;;5062690;28;20220;-96
2021/05/29 03:23:58;;;;;;;3.90;1.20;;;15.30;99.90;;;;;;5046198;28;20216;-96
2021/05/29 03:29:48;;;;;;;4.90;1.30;;;15.20;99.90;;;;;;5032012;28;20280;-96
2021/05/29 03:32:20;;;;;;;4.00;1.07;;;15.00;99.90;;;;;;5022998;28;20268;-96
2021/05/29 03:34:50;;;;;;;3.00;1.13;;;14.90;99.90;;;;;;5009772;28;20217;-96
2021/05/29 03:37:25;;;;;;;4.73;1.20;;;14.80;99.90;;;;;;5028782;28;20209;-96
2021/05/29 03:40:01;;;;;;;2.60;1.20;;;14.60;99.90;;;;;;5029802;28;20204;-96
2021/05/29 03:42:32;;;;;;;3.50;1.40;;;14.50;99.90;;;;;;5032622;28;20197;-95
2021/05/29 03:45:19;;;;;;;3.07;1.10;;;14.30;99.90;;;;;;5024232;28;20358;-96
2021/05/29 03:47:51;;;;;;;3.30;1.47;;;14.20;99.90;;;;;;5006591;28;20236;-96
2021/05/29 03:50:25;;;;;;;3.40;1.27;;;14.10;99.90;;;;;;5021517;28;20233;-96
2021/05/29 03:52:57;;;;;;;4.33;1.40;;;14.00;99.90;;;;;;5041860;28;20278;-96
2021/05/29 03:55:32;;;;;;;3.30;1.53;;;14.00;99.90;;;;;;5039656;28;20270;-96
2021/05/29 03:58:05;;;;;;;6.30;1.50;;;13.80;99.90;;;;;;5019627;28;20682;-96
2021/05/29 04:00:36;;;;;;;4.10;1.40;;;13.70;99.90;;;;;;5034410;28;20232;-96
2021/05/29 04:03:07;;;;;;;3.40;1.30;;;13.70;99.90;;;;;;5038100;28;20276;-96
2021/05/29 04:05:41;;;;;;;4.20;1.30;;;13.60;99.90;;;;;;5039539;28;20233;-96
2021/05/29 04:08:11;;;;;;;3.40;1.20;;;13.50;99.90;;;;;;5042460;28;20229;-96
2021/05/29 04:10:52;;;;;;;3.40;1.07;;;13.40;99.90;;;;;;5041821;28;20216;-96
2021/05/29 04:13:23;;;;;;;2.00;1.10;;;13.30;99.90;;;;;;5041097;28;20248;-96
2021/05/29 04:15:54;;;;;;;6.00;1.60;;;13.20;99.90;;;;;;5044098;28;20231;-96
2021/05/29 04:18:25;;;;;;;3.77;1.33;;;13.10;99.90;;;;;;5045337;28;20251;-96
2021/05/29 04:20:56;;;;;;;2.73;1.10;;;13.00;99.90;;;;;;5031266;28;20220;-96
2021/05/29 04:23:27;;;;;;;5.50;1.30;;;12.90;99.90;;;;;;5030408;28;20220;-96
2021/05/29 04:26:00;;;;;;;4.90;1.33;;;12.80;99.90;;;;;;5025277;28;20261;-96
2021/05/29 04:28:31;;;;;;;4.17;1.40;;;12.80;99.90;;;;;;5044353;28;20228;-96
2021/05/29 04:31:02;;;;;;;3.23;1.30;;;12.70;99.90;;;;;;5045735;28;20209;-96
2021/05/29 04:33:33;;;;;;;3.33;1.50;;;12.60;99.90;;;;;;5037318;28;20234;-96
2021/05/29 04:36:03;;;;;;;3.50;1.50;;;12.50;99.90;;;;;;5030677;28;20744;-96
2021/05/29 04:38:34;;;;;;;4.30;1.60;;;12.50;99.90;;;;;;5018804;28;20220;-96
2021/05/29 04:41:06;;;;;;;3.30;1.70;;;12.40;99.90;;;;;;5037754;28;20205;-96
2021/05/29 04:43:37;;;;;;;3.53;1.50;;;12.30;99.90;;;;;;5034529;28;20210;-96
2021/05/29 04:46:09;;;;;;;4.97;1.90;;;12.30;99.90;;;;;;5029047;28;20206;-96
2021/05/29 04:48:39;;;;;;;5.87;1.80;;;12.20;99.90;;;;;;5033831;28;20205;-96
2021/05/29 04:51:15;;;;;;;2.83;1.33;;;12.10;99.90;;;;;;5036480;28;20269;-96
2021/05/29 04:53:49;;;;;;;5.40;1.60;;;12.10;99.90;;;;;;5054221;28;20189;-94
2021/05/29 04:59:11;;;;;;;7.57;1.50;;;12.00;99.90;;;;;;4959580;29;20267;-96
2021/05/29 05:01:43;;;;;;;3.60;1.50;;;12.00;99.90;;;;;;4944652;29;20267;-95
2021/05/29 05:04:15;;;;;;;3.60;1.40;;;11.90;99.90;;;;;;4959628;29;20203;-96
2021/05/29 05:06:47;;;;;;;3.73;1.53;;;11.90;99.90;;;;;;4951169;29;20228;-96
2021/05/29 05:09:18;;;;;;;4.50;1.67;;;11.80;99.90;;;;;;4951530;29;20243;-96
2021/05/29 05:11:50;;;;;;;4.30;1.60;;;11.70;99.90;;;;;;4941908;29;20232;-96
2021/05/29 05:14:26;;;;;;;4.17;1.77;;;11.70;99.90;;;;;;4941008;29;20223;-96
2021/05/29 05:19:32;;;;;;;5.27;1.73;;;11.60;99.90;;;;;;5724720;23;20241;-96
2021/05/29 05:22:05;;;;;;;7.03;1.73;;;11.60;99.90;;;;;;5000647;28;20214;-96
2021/05/29 05:24:36;;;;;;;2.53;1.57;;;11.60;99.90;;;;;;4995244;28;20238;-96
2021/05/29 05:27:09;;;;;;;5.87;2.00;;;11.50;99.90;;;;;;4984659;28;20861;-96
2021/05/29 05:29:43;;;;;;;3.07;1.43;;;11.50;99.90;;;;;;5002629;28;20249;-96
2021/05/29 05:32:14;;;;;;;4.50;1.80;;;11.40;99.90;;;;;;4999618;28;20276;-96
2021/05/29 05:34:45;;;;;;;4.73;1.83;;;11.40;99.90;;;;;;5014690;28;20624;-96
2021/05/29 05:37:17;;;;;;;9.03;1.93;;;11.30;99.90;;;;;;5018103;28;20233;-96
2021/05/29 05:39:48;;;;;;;4.87;1.63;;;11.30;99.90;;;;;;5002831;28;20237;-96
2021/05/29 05:42:19;;;;;;;5.97;1.60;;;11.30;99.90;;;;;;5040695;28;20224;-96
2021/05/29 05:44:52;;;;;;;4.27;1.63;;;11.20;99.90;;;;;;5027995;28;20194;-96
2021/05/29 05:47:23;;;;;;;6.30;1.90;;;11.20;99.90;;;;;;5037255;28;20213;-96
2021/05/29 05:49:53;;;;;;;4.47;1.80;;;11.10;99.90;;;;;;5021757;28;20296;-96
2021/05/29 05:52:23;;;;;;;4.80;1.80;;;11.00;99.90;;;;;;5013270;28;20258;-96
2021/05/29 05:54:53;;;;;;;3.87;1.70;;;11.00;99.90;;;;;;4996423;28;20229;-96
2021/05/29 05:57:24;;;;;;;5.37;1.90;;;11.00;99.90;;;;;;5009220;28;20270;-96
2021/05/29 05:59:56;;;;;;;6.37;1.83;;;10.90;99.90;;;;;;5016630;28;20198;-96
2021/05/29 06:02:27;;;;;;;5.47;2.00;;;10.90;99.90;;;;;;5002289;28;20297;-96
2021/05/29 06:04:59;;;;;;;4.70;1.83;;;10.90;99.90;;;;;;5001609;28;20201;-96
2021/05/29 06:07:29;;;;;;;8.50;2.10;;;10.90;99.90;;;;;;5019750;28;20273;-96
2021/05/29 06:09:59;;;;;;;3.83;1.60;;;10.80;99.90;;;;;;5017300;28;20284;-96
2021/05/29 06:12:32;;;;;;;4.27;2.07;;;10.80;99.90;;;;;;5001486;28;20651;-95
2021/05/29 06:18:04;;;;;;;4.07;1.57;;;10.70;99.90;;;;;;5020062;28;20202;-96
2021/05/29 06:20:40;;;;;;;5.00;1.83;;;10.70;99.90;;;;;;5019118;28;20289;-96
2021/05/29 06:23:12;;;;;;;4.17;1.60;;;10.60;99.90;;;;;;5018070;28;20261;-96
2021/05/29 06:25:43;;;;;;;4.27;1.97;;;10.50;99.90;;;;;;5019323;28;20264;-96
2021/05/29 06:28:14;;;;;;;5.80;2.07;;;10.50;99.90;;;;;;5019969;28;20205;-96
2021/05/29 06:30:45;;;;;;;5.90;2.07;;;10.50;99.90;;;;;;5028116;28;20206;-96
2021/05/29 06:33:16;;;;;;;8.07;1.77;;;10.50;99.90;;;;;;5028947;28;20229;-96
2021/05/29 06:35:47;;;;;;;7.17;2.10;;;10.40;99.90;;;;;;5026296;28;20205;-96
2021/05/29 06:38:18;;;;;;;4.57;1.90;;;10.40;99.90;;;;;;5045633;28;20217;-96
2021/05/29 06:40:48;;;;;;;4.83;2.07;;;10.30;99.90;;;;;;5048697;28;20236;-96
2021/05/29 06:43:19;;;;;;;5.73;2.10;;;10.30;99.90;;;;;;5039970;28;20208;-96
2021/05/29 06:45:52;;;;;;;3.77;1.50;;;10.30;99.90;;;;;;5022799;28;20220;-96
2021/05/29 06:48:24;;;;;;;3.70;1.97;;;10.20;99.90;;;;;;5036287;28;20224;-96
2021/05/29 06:50:56;;;;;;;5.80;1.93;;;10.20;99.90;;;;;;5036328;28;20268;-96
2021/05/29 06:53:30;;;;;;;2.60;1.60;;;10.20;99.90;;;;;;5018958;28;20229;-94
2021/05/29 06:58:51;;;;;;;5.13;1.80;;;10.10;99.90;;;;;;5008042;28;20206;-95
2021/05/29 07:01:24;;;;;;;4.07;1.73;;;10.00;99.90;;;;;;5015821;28;20229;-94
2021/05/29 07:03:55;;;;;;;3.97;1.67;;;9.90;99.90;;;;;;5014560;28;20730;-95
2021/05/29 07:06:27;;;;;;;3.33;1.83;;;9.90;99.90;;;;;;4997716;28;20716;-95
2021/05/29 07:08:58;;;;;;;3.53;1.60;;;9.80;99.90;;;;;;4996350;28;20273;-95
2021/05/29 07:11:30;;;;;;;6.50;2.10;;;9.80;99.90;;;;;;5009852;28;20209;-96
2021/05/29 07:14:02;;;;;;;4.43;2.30;;;9.70;99.90;;;;;;5014709;28;20237;-95
2021/05/29 07:16:51;;;;;;;6.57;1.83;;;9.70;99.90;;;;;;5016110;28;20291;-95
2021/05/29 07:19:23;;;;;;;3.97;1.73;;;9.70;99.90;;;;;;5014763;28;20217;-94
2021/05/29 07:21:54;;;;;;;4.03;1.90;;;9.70;99.90;;;;;;5015631;28;20245;-95
2021/05/29 07:24:26;;;;;;;3.67;1.63;;;9.60;99.90;;;;;;5014521;28;20660;-95
2021/05/29 07:26:57;;;;;;;4.80;2.27;;;9.60;99.90;;;;;;5015343;28;20236;-96
2021/05/29 07:29:29;;;;;;;5.20;2.10;;;9.60;99.90;;;;;;5015273;28;20682;-96
2021/05/29 07:32:02;;;;;;;7.23;2.13;;;9.60;99.90;;;;;;5015364;28;20312;-96
2021/05/29 07:34:32;;;;;;;5.53;2.20;;;9.60;99.90;;;;;;4995121;28;20570;-96
2021/05/29 07:37:03;;;;;;;5.00;2.00;;;9.60;99.90;;;;;;4996014;28;20215;-95
2021/05/29 07:39:33;;;;;;;5.03;1.83;;;9.60;99.90;;;;;;5009709;28;20213;-95
2021/05/29 07:42:07;;;;;;;6.10;2.13;;;9.50;99.90;;;;;;5015934;28;20213;-95
2021/05/29 07:44:38;;;;;;;3.43;1.80;;;9.50;99.90;;;;;;5014838;28;20244;-95
2021/05/29 07:47:10;;;;;;;4.93;2.27;;;9.50;99.90;;;;;;5015796;28;20240;-95
2021/05/29 07:49:42;;;;;;;6.17;2.03;;;9.40;99.90;;;;;;5015422;28;20213;-96
2021/05/29 07:52:13;;;;;;;6.73;1.80;;;9.40;99.90;;;;;;5015281;28;20637;-96
2021/05/29 07:54:45;;;;;;;4.73;2.00;;;9.30;99.90;;;;;;5016202;28;20711;-96
2021/05/29 07:57:16;;;;;;;3.70;1.60;;;9.30;99.90;;;;;;5002958;28;20245;-94
2021/05/29 07:59:47;;;;;;;4.00;1.67;;;9.30;99.90;;;;;;5000466;28;20229;-95
2021/05/29 08:02:20;;;;;;;5.20;2.17;;;9.20;99.90;;;;;;5017192;28;20202;-94
2021/05/29 08:04:53;;;;;;;6.27;2.10;;;9.20;99.90;;;;;;5031763;28;20205;-94
2021/05/29 08:07:24;;;;;;;7.57;1.80;;;9.20;99.90;;;;;;5021164;28;20255;-94
2021/05/29 08:09:55;;;;;;;4.10;2.00;;;9.10;99.90;;;;;;5026410;28;20236;-95
2021/05/29 08:12:28;;;;;;;3.07;1.53;;;9.10;99.90;;;;;;5034921;28;20758;-95
2021/05/29 08:14:59;;;;;;;6.53;2.07;;;9.10;99.90;;;;;;5019095;28;20254;-95
2021/05/29 08:17:31;;;;;;;3.50;1.60;;;9.00;99.90;;;;;;5015638;28;20210;-95
2021/05/29 08:20:02;;;;;;;5.97;1.93;;;9.00;99.90;;;;;;5001455;28;20398;-95
2021/05/29 08:22:32;;;;;;;6.03;2.07;;;9.00;99.90;;;;;;5015083;28;20676;-95
2021/05/29 08:25:03;;;;;;;4.30;1.97;;;9.00;99.90;;;;;;4998272;28;20233;-95
2021/05/29 08:27:35;;;;;;;5.50;1.70;;;8.90;99.90;;;;;;4981885;28;20210;-96
2021/05/29 08:30:08;;;;;;;3.43;1.70;;;8.90;99.90;;;;;;4999529;28;20296;-96
2021/05/29 08:32:43;;;;;;;2.57;1.80;;;8.80;99.90;;;;;;5013427;28;20304;-96
2021/05/29 08:35:14;;;;;;;3.03;1.93;;;8.70;99.90;;;;;;5018116;28;20213;-96
2021/05/29 08:37:46;;;;;;;3.37;1.50;;;8.70;99.90;;;;;;5001392;28;20259;-96
2021/05/29 08:40:18;;;;;;;3.63;1.77;;;8.80;99.90;;;;;;5018276;28;20209;-96
2021/05/29 08:42:50;;;;;;;3.80;1.77;;;8.70;99.90;;;;;;5018885;28;20210;-96
2021/05/29 08:45:21;;;;;;;5.77;1.80;;;8.60;99.90;;;;;;5017402;28;20300;-95
2021/05/29 08:47:53;;;;;;;4.93;2.20;;;8.60;99.90;;;;;;5018700;28;20295;-95
2021/05/29 08:50:23;;;;;;;4.70;2.13;;;8.60;99.90;;;;;;5000569;28;20214;-96
2021/05/29 08:52:54;;;;;;;2.53;1.70;;;8.60;99.90;;;;;;5020981;28;20247;-95
2021/05/29 08:55:25;;;;;;;3.97;1.87;;;8.60;99.90;;;;;;5018013;28;20308;-95
2021/05/29 08:57:56;;;;;;;4.37;1.90;;;8.50;99.90;;;;;;5014498;28;20229;-95
2021/05/29 09:00:29;;;;;;;3.50;2.00;;;8.50;99.90;;;;;;4998516;28;20252;-94
2021/05/29 09:03:12;;;;;;;6.33;2.00;;;8.40;99.90;;;;;;5000383;28;20221;-95
2021/05/29 09:05:48;;;;;;;7.00;1.80;;;8.40;99.90;;;;;;4999978;28;20722;-96
2021/05/29 09:08:20;;;;;;;5.53;2.10;;;8.30;99.90;;;;;;5017546;28;20676;-95
2021/05/29 09:10:53;;;;;;;5.77;1.90;;;8.30;99.90;;;;;;5019830;28;20206;-95
2021/05/29 09:13:26;;;;;;;6.40;1.70;;;8.30;99.90;;;;;;5004479;28;20241;-96
2021/05/29 09:16:02;;;;;;;5.87;2.10;;;8.20;99.90;;;;;;5010426;28;20213;-96
2021/05/29 09:18:39;;;;;;;7.60;2.20;;;8.20;99.90;;;;;;5025810;28;20209;-95
2021/05/29 09:21:26;;;;;;;4.27;2.30;;;8.30;99.90;;;;;;5024259;28;20213;-96
2021/05/29 09:24:01;;;;;;;4.77;2.47;;;8.20;99.90;;;;;;5007718;28;20209;-96
2021/05/29 09:26:47;;;;;;;6.33;2.50;;;8.20;99.90;;;;;;5003632;28;20233;-96
2021/05/29 09:29:20;;;;;;;3.77;2.00;;;8.10;99.90;;;;;;5000093;28;20242;-95
2021/05/29 09:32:00;;;;;;;4.57;1.90;;;8.00;99.90;;;;;;4998535;28;20232;-96
2021/05/29 09:34:39;;;;;;;3.73;2.10;;;8.00;99.90;;;;;;4997725;28;20337;-96
2021/05/29 09:37:12;;;;;;;5.47;2.17;;;8.00;99.90;;;;;;4998173;28;20217;-96
2021/05/29 09:39:44;;;;;;;13.10;2.37;;;8.00;99.90;;;;;;4998140;28;20213;-96
2021/05/29 09:42:16;;;;;;;4.73;2.07;;;8.00;99.90;;;;;;5002533;28;20275;-96
2021/05/29 09:44:47;;;;;;;5.30;2.20;;;7.90;99.90;;;;;;5016717;28;20237;-96
2021/05/29 09:47:19;;;;;;;3.37;2.10;;;7.90;99.90;;;;;;5017412;28;20214;-96
2021/05/29 09:49:53;;;;;;;5.30;2.10;;;7.90;99.90;;;;;;5001061;28;20642;-96
2021/05/29 09:52:29;;;;;;;6.07;2.00;;;7.90;99.90;;;;;;5002264;28;20237;-96
2021/05/29 09:55:00;;;;;;;5.60;2.30;;;7.90;99.90;;;;;;4996964;28;20267;-96
2021/05/29 09:57:31;;;;;;;3.87;1.83;;;7.90;99.90;;;;;;4997632;28;20310;-96
2021/05/29 10:00:03;;;;;;;5.37;2.10;;;7.80;99.90;;;;;;4981235;28;20242;-96
2021/05/29 10:02:34;;;;;;;6.63;1.90;;;7.80;99.90;;;;;;5016824;28;20288;-96
2021/05/29 10:05:29;;;;;;;2.17;1.40;;;7.80;99.90;;;;;;5016666;28;20648;-96
2021/05/29 10:08:00;;;;;;;5.20;2.47;;;7.70;99.90;;;;;;5017678;28;20639;-96
2021/05/29 10:10:33;;;;;;;4.63;1.80;;;7.70;99.90;;;;;;4999246;28;20208;-95
2021/05/29 10:13:04;;;;;;;5.63;2.33;;;7.80;99.90;;;;;;4982499;28;20281;-96
2021/05/29 10:15:35;;;;;;;6.60;2.00;;;7.70;99.90;;;;;;5017385;28;20217;-95
2021/05/29 10:18:06;;;;;;;4.83;1.67;;;7.70;99.90;;;;;;5034057;28;20203;-96
2021/05/29 10:20:39;;;;;;;4.53;1.53;;;7.70;99.90;;;;;;5030990;28;20216;-95
2021/05/29 10:23:10;;;;;;;6.93;1.80;;;7.70;99.90;;;;;;5019737;28;20781;-95
2021/05/29 10:25:40;;;;;;;4.80;1.87;;;7.60;99.90;;;;;;5018601;28;20276;-96
2021/05/29 10:28:11;;;;;;;3.97;1.87;;;7.60;99.90;;;;;;5007401;28;20221;-95
2021/05/29 10:30:41;;;;;;;9.10;2.37;;;7.60;99.90;;;;;;5017881;28;20209;-96
2021/05/29 10:33:15;;;;;;;6.47;2.30;;;7.60;99.90;;;;;;5017671;28;20252;-95
2021/05/29 10:35:48;;;;;;;7.30;1.83;;;7.60;99.90;;;;;;5011624;28;20273;-96
2021/05/29 10:38:22;;;;;;;7.63;2.23;;;7.60;99.90;;;;;;5042781;28;20246;-96
2021/05/29 10:40:54;;;;;;;3.10;1.97;;;7.60;99.90;;;;;;5040132;28;20241;-96
2021/05/29 10:43:33;;;;;;;6.43;2.13;;;7.60;99.90;;;;;;5057562;28;20242;-95
2021/05/29 10:46:16;;;;;;;5.77;1.83;;;7.60;99.90;;;;;;5005744;28;20269;-96
2021/05/29 10:48:49;;;;;;;3.10;1.73;;;7.60;99.90;;;;;;4999151;28;20246;-95
2021/05/29 10:51:21;;;;;;;6.30;2.00;;;7.50;99.90;;;;;;4996967;28;20316;-95
2021/05/29 10:53:54;;;;;;;4.70;1.70;;;7.60;99.90;;;;;;5011196;28;20267;-95
2021/05/29 10:56:33;;;;;;;7.40;2.83;;;7.60;99.90;;;;;;5020649;28;20217;-95
2021/05/29 10:59:13;;;;;;;6.83;2.20;;;7.60;99.90;;;;;;5032015;28;20225;-95
2021/05/29 11:02:10;;;;;;;5.63;2.40;;;7.60;99.90;;;;;;5035150;28;20213;-95
2021/05/29 11:04:41;;;;;;;4.17;2.10;;;7.50;99.90;;;;;;5008442;28;20213;-95
2021/05/29 11:07:30;;;;;;;7.63;2.20;;;7.60;99.90;;;;;;4999726;28;20597;-95
2021/05/29 11:10:01;;;;;;;7.43;2.33;;;7.60;99.90;;;;;;4980311;28;20296;-95
2021/05/29 11:12:56;;;;;;;4.10;1.77;;;7.60;99.90;;;;;;4998967;28;20243;-95
2021/05/29 11:16:06;;;;;;;3.60;1.97;;;7.50;99.90;;;;;;5009224;28;20269;-95
2021/05/29 11:18:57;;;;;;;2.97;1.83;;;7.50;99.90;;;;;;5001519;28;20217;-95
2021/05/29 11:21:28;;;;;;;3.30;1.70;;;7.60;99.90;;;;;;5016110;28;20223;-95
2021/05/29 11:24:17;;;;;;;5.73;1.73;;;7.50;99.90;;;;;;5015395;28;20638;-95
2021/05/29 11:26:48;;;;;;;5.37;1.87;;;7.60;99.90;;;;;;5016101;28;20233;-95
2021/05/29 11:29:19;;;;;;;2.53;1.83;;;7.50;99.90;;;;;;5012882;28;20244;-95
2021/05/29 11:31:51;;;;;;;4.30;2.27;;;7.50;99.90;;;;;;4963334;28;20323;-94
2021/05/29 11:34:22;;;;;;;3.73;1.90;;;7.50;99.90;;;;;;4994826;28;20648;-95
2021/05/29 11:36:55;;;;;;;3.23;1.80;;;7.50;99.90;;;;;;4995317;28;20294;-96
2021/05/29 11:39:27;;;;;;;3.70;1.83;;;7.40;99.90;;;;;;4978456;28;20213;-95
2021/05/29 11:42:01;;;;;;;4.87;1.93;;;7.40;99.90;;;;;;4995457;28;20348;-95
2021/05/29 11:44:35;;;;;;;6.70;2.47;;;7.40;99.90;;;;;;4994904;28;20228;-95
2021/05/29 11:47:15;;;;;;;4.80;2.03;;;7.40;99.90;;;;;;5008140;28;20336;-95
2021/05/29 11:49:46;;;;;;;4.77;2.20;;;7.40;99.90;;;;;;5015373;28;20259;-95
2021/05/29 11:52:16;;;;;;;4.57;2.07;;;7.30;99.90;;;;;;4998561;28;20220;-94
2021/05/29 11:54:48;;;;;;;6.47;1.80;;;7.30;99.90;;;;;;5018458;28;20319;-95
2021/05/29 11:57:19;;;;;;;3.57;1.73;;;7.20;99.90;;;;;;5019348;28;20238;-96
2021/05/29 11:59:50;;;;;;;4.10;1.73;;;7.20;99.90;;;;;;5002071;28;20212;-94
2021/05/29 12:02:21;;;;;;;5.17;2.03;;;7.20;99.90;;;;;;5018785;28;20296;-96
2021/05/29 12:04:53;;;;;;;5.93;2.27;;;7.10;99.90;;;;;;5001060;28;20251;-94
2021/05/29 12:07:24;;;;;;;3.13;1.53;;;7.10;99.90;;;;;;5019276;28;20270;-94
2021/05/29 12:09:57;;;;;;;4.83;1.80;;;7.00;99.90;;;;;;5025935;28;20264;-95
2021/05/29 12:12:30;;;;;;;3.43;1.87;;;7.00;99.90;;;;;;5017799;28;20253;-95
2021/05/29 12:15:00;;;;;;;3.43;1.83;;;7.00;99.90;;;;;;5018098;28;20241;-95
2021/05/29 12:17:36;;;;;;;5.10;2.00;;;7.00;99.90;;;;;;5019107;28;20240;-95
2021/05/29 12:20:08;;;;;;;6.00;1.80;;;7.00;99.90;;;;;;5019398;28;20300;-94
2021/05/29 12:22:39;;;;;;;9.03;2.23;;;7.00;99.90;;;;;;5019111;28;20268;-94
2021/05/29 12:25:12;;;;;;;5.07;2.03;;;7.00;99.90;;;;;;5018950;28;20241;-94
2021/05/29 12:27:51;;;;;;;4.67;1.90;;;7.00;99.90;;;;;;5024606;28;20214;-95
2021/05/29 12:30:26;;;;;;;4.60;2.33;;;7.00;99.90;;;;;;5039762;28;20248;-96
2021/05/29 12:32:58;;;;;;;3.17;1.73;;;6.90;99.90;;;;;;5039519;28;20201;-96
2021/05/29 12:35:32;;;;;;;5.27;1.90;;;7.00;99.90;;;;;;5026849;28;20234;-95
2021/05/29 12:38:12;;;;;;;1.70;1.60;;;7.00;99.90;;;;;;5023854;28;20197;-95
2021/05/29 12:41:00;;;;;;;3.27;1.50;;;6.90;99.90;;;;;;5031111;28;20201;-93
2021/05/29 12:43:31;;;;;;;2.87;1.70;;;7.00;99.90;;;;;;5036354;28;20194;-96
2021/05/29 12:46:02;;;;;;;3.47;2.10;;;7.00;99.90;;;;;;5031884;28;20205;-95
2021/05/29 12:48:33;;;;;;;5.33;1.67;;;7.00;99.90;;;;;;5034478;28;20277;-95
2021/05/29 12:51:10;;;;;;;3.13;1.70;;;6.90;99.90;;;;;;5016054;28;20210;-94
2021/05/29 12:53:53;;;;;;;3.87;2.07;;;7.00;99.90;;;;;;5021801;28;20213;-96
2021/05/29 12:56:25;;;;;;;4.23;2.20;;;7.00;99.90;;;;;;5018314;28;20300;-93
2021/05/29 12:59:00;;;;;;;3.90;2.20;;;7.00;99.90;;;;;;5013297;28;20222;-94
2021/05/29 13:01:53;;;;;;;5.47;1.97;;;7.10;99.90;;;;;;5001230;28;20199;-94
2021/05/29 13:07:28;;;;;;;8.17;2.43;;;7.10;99.90;;;;;;4975689;28;20218;-93
2021/05/29 13:10:06;;;;;;;4.03;2.27;;;7.30;99.90;;;;;;4999279;28;20680;-93
2021/05/29 13:12:38;;;;;;;5.67;2.47;;;7.30;99.90;;;;;;4998061;28;20232;-93
2021/05/29 13:15:17;;;;;;;5.27;2.13;;;7.30;99.90;;;;;;4997467;28;20288;-93
2021/05/29 13:17:48;;;;;;;6.67;2.37;;;7.40;99.90;;;;;;4998063;28;20219;-94
2021/05/29 13:20:21;;;;;;;4.37;1.87;;;7.50;99.90;;;;;;4998604;28;20216;-94
2021/05/29 13:23:00;;;;;;;5.50;2.03;;;7.60;99.90;;;;;;4998590;28;20213;-95
2021/05/29 13:25:43;;;;;;;5.57;2.17;;;7.70;99.90;;;;;;4997390;28;20233;-96
2021/05/29 13:28:19;;;;;;;3.60;1.90;;;7.70;99.90;;;;;;4981606;28;20366;-96
2021/05/29 13:30:50;;;;;;;5.50;1.77;;;7.80;99.90;;;;;;4998543;28;20317;-93
2021/05/29 13:33:20;;;;;;;2.23;1.57;;;7.90;99.90;;;;;;4999242;28;20239;-95
2021/05/29 13:35:52;;;;;;;3.33;1.33;;;8.10;99.90;;;;;;4980603;28;20230;-95
2021/05/29 13:38:22;;;;;;;4.10;1.57;;;8.10;99.90;;;;;;4997985;28;20235;-94
2021/05/29 13:40:53;;;;;;;4.80;1.70;;;8.20;99.90;;;;;;5000284;28;20248;-95
2021/05/29 13:43:25;;;;;;;4.67;1.60;;;8.20;99.90;;;;;;5017600;28;20279;-95
2021/05/29 13:45:57;;;;;;;3.33;1.70;;;8.30;99.90;;;;;;5015059;28;20687;-95
2021/05/29 13:48:28;;;;;;;2.83;1.60;;;8.40;99.90;;;;;;5018606;28;20213;-95
2021/05/29 13:50:59;;;;;;;1.67;1.10;;;8.50;99.90;;;;;;5004388;28;20662;-95
2021/05/29 13:53:30;;;;;;;3.30;1.43;;;8.50;99.90;;;;;;4997767;28;20317;-94
2021/05/29 13:56:00;;;;;;;1.67;1.10;;;8.60;99.90;;;;;;5001636;28;20320;-95
2021/05/29 13:58:32;;;;;;;2.33;1.23;;;8.70;99.90;;;;;;5016399;28;20286;-95
2021/05/29 14:01:03;;;;;;;1.57;0.93;;;8.80;99.90;;;;;;5008453;28;20291;-95
2021/05/29 14:03:33;;;;;;;1.60;1.20;;;8.80;99.90;;;;;;5016785;28;20212;-94
2021/05/29 14:06:05;;;;;;;3.57;0.97;;;9.00;99.90;;;;;;5016529;28;20216;-94
2021/05/29 14:08:35;;;;;;;2.10;1.00;;;9.00;99.90;;;;;;5016845;28;20264;-94
2021/05/29 14:11:07;;;;;;;1.70;1.00;;;9.10;99.90;;;;;;5016889;28;20295;-93
2021/05/29 14:13:39;;;;;;;1.07;0.63;;;9.20;99.90;;;;;;5016590;28;20387;-94
2021/05/29 14:16:10;;;;;;;1.50;0.90;;;9.30;99.90;;;;;;5014920;28;20555;-94
2021/05/29 14:18:44;;;;;;;1.73;0.80;;;9.40;99.90;;;;;;5016210;28;20740;-94
2021/05/29 14:21:16;;;;;;;0.97;0.87;;;9.50;99.90;;;;;;4998800;28;20311;-94
2021/05/29 14:23:47;;;;;;;0.87;0.70;;;9.60;99.90;;;;;;5015652;28;20278;-96
2021/05/29 14:26:18;;;;;;;0.90;0.70;;;9.60;99.90;;;;;;5014631;28;20239;-94
2021/05/29 14:28:50;;;;;;;2.60;0.70;;;9.70;99.90;;;;;;5015897;28;20244;-93